Time;durP1;ratioP1;P1;durP2;ratioP2;P2;SDS_P1;SDS_P2;PMS_P1;PMS_P2;Temp;Humidity;BMP_temperature;BMP_pressure;BME280_temperature;BME280_humidity;BME280_pressure;Samples;Min_cycle;Max_cycle;Signal;HPM_P1;HPM_P2
2021/04/13 00:02:29;;;;;;;9.30;2.35;;;6.80;57.10;;;;;;5026855;28;20074;-64
2021/04/13 00:05:08;;;;;;;5.60;1.92;;;6.80;57.20;;;;;;5036069;28;20458;-64
2021/04/13 00:07:43;;;;;;;5.05;2.08;;;6.80;57.30;;;;;;5012214;28;20055;-64
2021/04/13 00:10:16;;;;;;;6.80;2.13;;;6.80;57.50;;;;;;5012888;28;20044;-64
2021/04/13 00:12:45;;;;;;;4.85;2.20;;;6.80;57.80;;;;;;5010728;28;20056;-64
2021/04/13 00:15:38;;;;;;;7.47;1.80;;;6.90;58.10;;;;;;5019544;28;20124;-65
2021/04/13 00:18:07;;;;;;;7.22;2.22;;;7.10;58.30;;;;;;5023956;28;20045;-65
2021/04/13 00:21:04;;;;;;;6.35;2.22;;;7.20;58.30;;;;;;5018443;28;20170;-65
2021/04/13 00:23:30;;;;;;;4.68;2.60;;;7.30;58.20;;;;;;5011657;28;20040;-65
2021/04/13 00:26:03;;;;;;;6.82;2.33;;;7.30;58.20;;;;;;5018905;28;20045;-65
2021/04/13 00:28:43;;;;;;;8.43;1.98;;;7.30;58.10;;;;;;5005517;28;20087;-66
2021/04/13 00:31:09;;;;;;;4.95;1.98;;;7.40;58.10;;;;;;5019837;28;20049;-66
2021/04/13 00:33:38;;;;;;;6.78;2.25;;;7.40;58.00;;;;;;5014359;28;20038;-66
2021/04/13 00:36:09;;;;;;;4.38;2.08;;;7.40;58.00;;;;;;5017683;28;20045;-66
2021/04/13 00:38:48;;;;;;;7.60;2.75;;;7.40;57.90;;;;;;5008893;28;20051;-66
2021/04/13 00:41:19;;;;;;;6.75;2.40;;;7.40;57.80;;;;;;5020257;28;20175;-66
2021/04/13 00:43:50;;;;;;;6.10;2.90;;;7.30;57.60;;;;;;5018639;28;20048;-66
2021/04/13 00:46:34;;;;;;;10.00;3.70;;;7.20;57.50;;;;;;5028440;23;20148;-64
2021/04/13 00:49:01;;;;;;;8.77;4.20;;;7.10;57.30;;;;;;4999683;28;20164;-64
2021/04/13 00:51:30;;;;;;;13.10;4.80;;;7.00;57.40;;;;;;5016927;28;20502;-64
2021/04/13 00:54:00;;;;;;;11.70;6.47;;;7.00;57.50;;;;;;5030897;28;20394;-64
2021/04/13 00:56:30;;;;;;;15.10;6.28;;;6.90;57.70;;;;;;5018974;28;20911;-63
2021/04/13 00:59:02;;;;;;;15.82;5.70;;;6.90;58.20;;;;;;5003348;28;21130;-64
2021/04/13 01:01:37;;;;;;;15.35;5.78;;;7.00;59.00;;;;;;5020508;28;20037;-63
2021/04/13 01:04:16;;;;;;;14.55;4.30;;;7.00;58.50;;;;;;5017983;28;20095;-63
2021/04/13 01:06:42;;;;;;;9.98;4.50;;;7.00;58.30;;;;;;5009374;28;20041;-63
2021/04/13 01:09:24;;;;;;;8.82;3.88;;;7.00;58.30;;;;;;5006124;28;20056;-66
2021/04/13 01:11:53;;;;;;;10.32;3.90;;;7.00;58.20;;;;;;5018897;28;20041;-65
2021/04/13 01:14:23;;;;;;;9.70;2.88;;;6.90;58.20;;;;;;5023704;28;20125;-65
2021/04/13 01:16:57;;;;;;;8.07;2.88;;;6.90;58.20;;;;;;5010167;28;20067;-65
2021/04/13 01:19:53;;;;;;;16.60;2.78;;;6.80;58.80;;;;;;5012270;28;20531;-65
2021/04/13 01:22:30;;;;;;;10.90;3.13;;;6.80;58.30;;;;;;5020287;28;20137;-65
2021/04/13 01:25:09;;;;;;;14.95;2.80;;;6.70;58.50;;;;;;5013240;28;20037;-65
2021/04/13 01:27:36;;;;;;;9.65;2.60;;;6.80;58.80;;;;;;5012937;28;20561;-66
2021/04/13 01:30:10;;;;;;;11.23;2.97;;;6.80;58.80;;;;;;5004214;28;20430;-64
2021/04/13 01:32:36;;;;;;;9.70;2.42;;;6.90;58.80;;;;;;5019566;28;20029;-64
2021/04/13 01:35:10;;;;;;;10.02;2.70;;;6.90;58.70;;;;;;5014507;28;20048;-64
2021/04/13 01:38:06;;;;;;;12.70;2.80;;;6.80;58.60;;;;;;4999593;28;23850;-64
2021/04/13 01:40:46;;;;;;;8.52;2.70;;;6.70;58.30;;;;;;4997122;28;20037;-65
2021/04/13 01:43:13;;;;;;;15.50;2.80;;;6.70;58.30;;;;;;5006832;28;20048;-63
2021/04/13 01:45:42;;;;;;;9.40;3.30;;;6.70;58.50;;;;;;5008311;28;20128;-63
2021/04/13 01:48:12;;;;;;;9.43;2.42;;;6.60;58.50;;;;;;5015289;28;20102;-64
2021/04/13 01:50:41;;;;;;;11.73;2.83;;;6.60;58.70;;;;;;5016299;28;20063;-65
2021/04/13 01:53:13;;;;;;;15.07;2.90;;;6.50;58.70;;;;;;5010126;28;20681;-64
2021/04/13 01:55:53;;;;;;;11.38;2.70;;;6.60;59.00;;;;;;5005064;28;20037;-64
2021/04/13 01:58:24;;;;;;;11.48;2.55;;;6.60;59.30;;;;;;5010883;28;20912;-65
2021/04/13 02:01:12;;;;;;;17.20;3.20;;;6.70;59.40;;;;;;5017722;28;20769;-64
2021/04/13 02:04:15;;;;;;;13.70;2.47;;;6.70;59.10;;;;;;5014642;28;20068;-64
2021/04/13 02:06:52;;;;;;;8.25;2.95;;;6.60;58.90;;;;;;5002162;28;20045;-64
2021/04/13 02:09:43;;;;;;;15.63;2.92;;;6.60;59.10;;;;;;5025048;28;20060;-64
2021/04/13 02:12:21;;;;;;;14.57;3.35;;;6.60;59.20;;;;;;5009300;28;20057;-64
2021/04/13 02:14:54;;;;;;;12.55;3.05;;;6.60;59.30;;;;;;5026004;28;20051;-64
2021/04/13 02:17:39;;;;;;;12.90;3.28;;;6.50;59.40;;;;;;5014198;28;20052;-64
2021/04/13 02:20:13;;;;;;;15.27;3.33;;;6.50;59.30;;;;;;5012116;28;20124;-64
2021/04/13 02:22:50;;;;;;;8.75;2.97;;;6.50;59.60;;;;;;5009584;28;20473;-63
2021/04/13 02:25:21;;;;;;;13.57;2.88;;;6.60;59.50;;;;;;5014411;28;20044;-64
2021/04/13 02:27:47;;;;;;;7.35;2.42;;;6.60;59.50;;;;;;5021555;28;20045;-64
2021/04/13 02:30:21;;;;;;;7.68;2.53;;;6.50;59.40;;;;;;5012821;28;20168;-64
2021/04/13 02:32:52;;;;;;;13.27;2.75;;;6.50;59.50;;;;;;4999154;28;20075;-64
2021/04/13 02:35:22;;;;;;;10.23;3.10;;;6.50;59.50;;;;;;5010279;28;20128;-64
2021/04/13 02:37:51;;;;;;;9.57;3.47;;;6.50;59.60;;;;;;5018999;28;20124;-64
2021/04/13 02:40:34;;;;;;;14.85;2.85;;;6.50;59.80;;;;;;5002018;28;20045;-64
2021/04/13 02:43:12;;;;;;;11.63;3.08;;;6.60;60.60;;;;;;5003976;28;20056;-64
2021/04/13 02:45:49;;;;;;;20.50;3.10;;;6.60;60.20;;;;;;5008864;28;20655;-64
2021/04/13 02:48:22;;;;;;;17.73;3.33;;;6.60;60.40;;;;;;5017653;28;21913;-63
2021/04/13 02:50:54;;;;;;;10.80;2.58;;;6.70;60.50;;;;;;5008899;28;20045;-64
2021/04/13 02:53:32;;;;;;;15.77;2.63;;;6.80;60.40;;;;;;5009421;28;20033;-64
2021/04/13 02:56:03;;;;;;;14.52;3.08;;;6.80;60.30;;;;;;5014413;28;20064;-64
2021/04/13 02:58:40;;;;;;;15.98;3.65;;;6.80;60.40;;;;;;5006328;28;20041;-62
2021/04/13 03:01:06;;;;;;;15.82;3.40;;;6.90;60.40;;;;;;5011017;28;20044;-64
2021/04/13 03:03:36;;;;;;;18.15;3.40;;;6.90;60.30;;;;;;5003238;28;20110;-65
2021/04/13 03:06:07;;;;;;;14.02;3.65;;;6.90;60.30;;;;;;5009385;28;20073;-65
2021/04/13 03:08:39;;;;;;;14.15;2.92;;;6.90;60.60;;;;;;5006529;28;20041;-64
2021/04/13 03:11:16;;;;;;;13.93;3.80;;;7.00;60.80;;;;;;5008004;28;20041;-63
2021/04/13 03:13:43;;;;;;;15.40;3.30;;;7.10;60.90;;;;;;5018359;28;20052;-64
2021/04/13 03:16:12;;;;;;;12.90;3.17;;;7.10;60.90;;;;;;5020998;28;20087;-63
2021/04/13 03:18:49;;;;;;;16.05;3.47;;;7.20;61.00;;;;;;5016142;28;20048;-64
2021/04/13 03:21:31;;;;;;;14.65;3.60;;;7.20;61.70;;;;;;5006807;28;20338;-64
2021/04/13 03:23:59;;;;;;;12.35;3.17;;;7.30;61.10;;;;;;5004984;28;20053;-63
2021/04/13 03:26:30;;;;;;;10.10;3.05;;;7.30;61.00;;;;;;5000147;28;20128;-63
2021/04/13 03:29:01;;;;;;;7.95;3.15;;;7.30;61.10;;;;;;5019098;28;20045;-63
2021/04/13 03:31:32;;;;;;;11.20;2.95;;;7.30;61.10;;;;;;5005480;28;20041;-64
2021/04/13 03:34:00;;;;;;;15.25;2.92;;;7.30;60.90;;;;;;5000271;28;20182;-63
2021/04/13 03:36:26;;;;;;;11.70;3.00;;;7.30;60.60;;;;;;5014091;28;20064;-62
2021/04/13 03:39:11;;;;;;;16.83;3.50;;;7.30;60.40;;;;;;5009731;28;20418;-65
2021/04/13 03:41:42;;;;;;;9.27;2.90;;;7.20;60.20;;;;;;5005003;28;20049;-63
2021/04/13 03:44:09;;;;;;;20.80;3.13;;;7.10;60.10;;;;;;5007599;28;20041;-64
2021/04/13 03:46:38;;;;;;;15.85;3.22;;;7.00;60.70;;;;;;5005976;28;20042;-63
2021/04/13 03:49:12;;;;;;;16.75;3.30;;;6.90;60.00;;;;;;5006745;28;20101;-64
2021/04/13 03:51:46;;;;;;;14.13;3.38;;;6.90;60.10;;;;;;5010017;28;20094;-63
2021/04/13 03:54:25;;;;;;;10.40;3.25;;;6.80;60.10;;;;;;5007250;28;20453;-65
2021/04/13 03:56:52;;;;;;;10.82;3.28;;;6.70;60.10;;;;;;4999724;28;20839;-64
2021/04/13 03:59:26;;;;;;;11.57;3.97;;;6.70;60.20;;;;;;5002835;28;20046;-63
2021/04/13 04:01:55;;;;;;;15.18;3.30;;;6.70;60.20;;;;;;5012479;28;20090;-64
2021/04/13 04:04:33;;;;;;;10.77;3.40;;;6.60;60.40;;;;;;5009323;28;21619;-64
2021/04/13 04:07:58;;;;;;;14.35;3.92;;;6.50;60.30;;;;;;5010999;28;20061;-64
2021/04/13 04:10:34;;;;;;;13.63;3.30;;;6.50;60.40;;;;;;5003945;28;20175;-64
2021/04/13 04:13:11;;;;;;;11.27;3.47;;;6.50;60.20;;;;;;5014685;28;20040;-64
2021/04/13 04:15:48;;;;;;;12.50;2.95;;;6.40;60.30;;;;;;5006612;28;25271;-63
2021/04/13 04:18:29;;;;;;;15.85;3.60;;;6.40;60.30;;;;;;5008814;28;20145;-63
2021/04/13 04:20:58;;;;;;;19.50;4.03;;;6.40;60.40;;;;;;5008391;28;20052;-64
2021/04/13 04:23:31;;;;;;;11.07;4.18;;;6.30;60.30;;;;;;5011202;28;20040;-63
2021/04/13 04:26:05;;;;;;;11.88;4.20;;;6.20;60.30;;;;;;5017320;28;20047;-64
2021/04/13 04:28:37;;;;;;;13.77;4.40;;;6.20;60.40;;;;;;5010159;28;20037;-63
2021/04/13 04:31:35;;;;;;;21.73;4.65;;;6.20;60.60;;;;;;5008336;28;20037;-62
2021/04/13 04:34:21;;;;;;;35.28;5.15;;;6.10;60.60;;;;;;5010526;28;20056;-64
2021/04/13 04:36:57;;;;;;;15.23;4.75;;;6.10;60.60;;;;;;5010298;28;20036;-64
2021/04/13 04:39:33;;;;;;;14.20;4.60;;;6.10;60.70;;;;;;5015025;28;20037;-65
2021/04/13 04:42:28;;;;;;;21.58;3.95;;;6.10;60.80;;;;;;5018011;28;20402;-63
2021/04/13 04:45:14;;;;;;;26.00;4.15;;;6.10;60.80;;;;;;5014249;28;20672;-63
2021/04/13 04:47:42;;;;;;;24.33;4.32;;;6.10;60.80;;;;;;5010338;28;23567;-62
2021/04/13 04:50:15;;;;;;;23.70;4.53;;;6.00;60.80;;;;;;5014079;28;20055;-63
2021/04/13 04:52:41;;;;;;;14.77;3.40;;;6.00;61.00;;;;;;5025724;28;20037;-64
2021/04/13 04:55:08;;;;;;;19.13;3.90;;;6.00;60.90;;;;;;5005847;28;20446;-63
2021/04/13 04:57:33;;;;;;;11.18;3.50;;;6.00;60.90;;;;;;5010434;28;20057;-63
2021/04/13 05:00:01;;;;;;;15.77;3.53;;;6.10;61.10;;;;;;5009752;28;20079;-63
2021/04/13 05:02:26;;;;;;;14.20;3.50;;;6.10;61.10;;;;;;5013468;28;20068;-63
2021/04/13 05:04:52;;;;;;;24.67;3.85;;;6.10;61.20;;;;;;5004124;28;20037;-64
2021/04/13 05:07:18;;;;;;;17.27;4.05;;;6.10;61.20;;;;;;5008641;28;20037;-63
2021/04/13 05:09:44;;;;;;;11.82;3.25;;;6.20;61.60;;;;;;5006943;28;20513;-64
2021/04/13 05:12:10;;;;;;;14.65;3.90;;;6.30;62.00;;;;;;5013459;28;20066;-63
2021/04/13 05:14:35;;;;;;;11.25;3.15;;;6.40;62.30;;;;;;5016162;28;20034;-64
2021/04/13 05:17:01;;;;;;;11.00;3.10;;;6.50;62.40;;;;;;5015106;28;20075;-65
2021/04/13 05:19:27;;;;;;;11.88;3.33;;;6.60;62.20;;;;;;5011901;28;20091;-63
2021/04/13 05:21:53;;;;;;;12.95;3.70;;;6.60;62.00;;;;;;5011885;28;20200;-63
2021/04/13 05:24:18;;;;;;;15.70;4.22;;;6.70;62.10;;;;;;5010629;28;20151;-63
2021/04/13 05:26:44;;;;;;;19.65;3.47;;;6.80;62.40;;;;;;5022828;28;20029;-63
2021/04/13 05:29:12;;;;;;;16.80;3.03;;;7.00;62.60;;;;;;5018564;28;20057;-64
2021/04/13 05:31:40;;;;;;;9.45;2.40;;;7.20;62.90;;;;;;5018842;28;20056;-63
2021/04/13 05:34:08;;;;;;;24.50;3.38;;;7.40;62.70;;;;;;5012803;28;20044;-63
2021/04/13 05:36:36;;;;;;;10.07;3.15;;;7.50;62.20;;;;;;5016573;28;20930;-64
2021/04/13 05:39:07;;;;;;;12.85;3.25;;;7.60;62.00;;;;;;5027971;28;20037;-63
2021/04/13 05:41:33;;;;;;;13.27;2.83;;;7.70;62.00;;;;;;5042194;28;20071;-63
2021/04/13 05:44:02;;;;;;;12.55;3.20;;;7.70;61.60;;;;;;5023423;28;20792;-64
2021/04/13 05:46:30;;;;;;;12.05;3.03;;;7.70;61.50;;;;;;5012627;28;20037;-63
2021/04/13 05:48:58;;;;;;;17.35;3.38;;;7.70;61.50;;;;;;5012815;28;20072;-66
2021/04/13 05:51:24;;;;;;;17.65;3.15;;;7.80;61.60;;;;;;5008268;28;20521;-66
2021/04/13 05:53:50;;;;;;;16.98;3.55;;;7.80;61.50;;;;;;5006996;28;20037;-66
2021/04/13 05:56:24;;;;;;;10.50;3.25;;;7.80;61.40;;;;;;5008973;28;20041;-66
2021/04/13 05:58:50;;;;;;;19.23;3.63;;;7.80;61.60;;;;;;5021939;28;20056;-64
2021/04/13 06:01:19;;;;;;;15.38;3.10;;;7.90;61.70;;;;;;5024372;28;20041;-63
2021/04/13 06:03:45;;;;;;;29.73;4.43;;;8.00;61.80;;;;;;5021311;28;20036;-63
2021/04/13 06:06:13;;;;;;;17.13;3.58;;;8.00;61.70;;;;;;5021647;28;20048;-63
2021/04/13 06:08:39;;;;;;;18.08;3.40;;;8.10;62.00;;;;;;5017303;28;20037;-64
2021/04/13 06:11:06;;;;;;;16.27;3.50;;;8.10;61.90;;;;;;5021174;28;20095;-64
2021/04/13 06:13:31;;;;;;;8.20;3.28;;;8.20;62.00;;;;;;5029729;28;20040;-63
2021/04/13 06:15:57;;;;;;;17.88;3.33;;;8.30;62.10;;;;;;5029955;28;20052;-64
2021/04/13 06:18:26;;;;;;;16.38;2.75;;;8.50;62.50;;;;;;5031846;28;20041;-64
2021/04/13 06:20:52;;;;;;;19.80;3.65;;;8.60;63.20;;;;;;5032982;28;20044;-63
2021/04/13 06:23:21;;;;;;;16.88;3.25;;;8.70;62.20;;;;;;5040088;28;20041;-64
2021/04/13 06:25:46;;;;;;;20.63;2.97;;;8.70;61.80;;;;;;5020406;28;20120;-66
2021/04/13 06:28:14;;;;;;;17.60;3.30;;;8.70;61.40;;;;;;5027103;28;20495;-66
2021/04/13 06:30:44;;;;;;;18.83;3.40;;;8.70;61.30;;;;;;5021378;28;20705;-66
2021/04/13 06:33:10;;;;;;;17.75;3.10;;;8.70;61.20;;;;;;5024025;28;20041;-66
2021/04/13 06:35:36;;;;;;;8.18;2.80;;;8.60;61.30;;;;;;5021238;28;20043;-66
2021/04/13 06:38:15;;;;;;;17.20;2.88;;;8.70;61.60;;;;;;5018357;28;20112;-64
2021/04/13 06:40:49;;;;;;;17.20;2.85;;;8.70;61.40;;;;;;5024727;28;20051;-65
2021/04/13 06:43:51;;;;;;;19.90;3.55;;;8.80;61.60;;;;;;5022726;28;20033;-64
2021/04/13 06:46:39;;;;;;;12.90;2.65;;;9.00;62.20;;;;;;5025000;23;20056;-65
2021/04/13 06:49:26;;;;;;;13.18;2.80;;;9.10;61.90;;;;;;5035904;28;20041;-65
2021/04/13 06:52:06;;;;;;;12.73;3.15;;;9.20;61.80;;;;;;5030634;28;20517;-65
2021/04/13 06:54:43;;;;;;;18.25;2.40;;;9.40;61.90;;;;;;5029333;28;20063;-65
2021/04/13 06:57:13;;;;;;;16.60;2.75;;;9.60;62.20;;;;;;5023187;23;20037;-62
2021/04/13 07:00:00;;;;;;;9.80;2.65;;;10.00;62.90;;;;;;5002806;28;20037;-63
2021/04/13 07:02:34;;;;;;;12.20;1.95;;;10.60;62.80;;;;;;5004996;28;20548;-63
2021/04/13 07:05:06;;;;;;;11.23;2.55;;;11.10;60.80;;;;;;5005304;28;20106;-63
2021/04/13 07:07:37;;;;;;;14.48;2.40;;;;;;;;;;4994585;28;20069;-63
2021/04/13 07:10:19;;;;;;;16.73;2.22;;;11.30;60.10;;;;;;5001140;28;20571;-63
2021/04/13 07:13:10;;;;;;;10.40;2.03;;;12.00;60.00;;;;;;4994885;28;20117;-63
2021/04/13 07:15:58;;;;;;;8.55;1.88;;;12.80;59.10;;;;;;4997918;28;20530;-63
2021/04/13 07:18:34;;;;;;;10.38;1.95;;;13.00;56.40;;;;;;5004686;28;20129;-65
2021/04/13 07:21:23;;;;;;;12.27;2.38;;;12.80;55.10;;;;;;5008420;28;20045;-63
2021/04/13 07:23:58;;;;;;;12.77;1.88;;;12.40;54.80;;;;;;5004617;28;20570;-63
2021/04/13 07:26:38;;;;;;;13.20;2.30;;;12.20;55.30;;;;;;4995043;28;20060;-63
2021/04/13 07:29:17;;;;;;;12.15;2.05;;;12.10;55.80;;;;;;5002811;28;23263;-63
2021/04/13 07:31:55;;;;;;;17.40;2.17;;;12.40;56.40;;;;;;5006557;28;20045;-63
2021/04/13 07:34:22;;;;;;;14.77;2.42;;;12.80;55.60;;;;;;5001080;28;20049;-63
2021/04/13 07:37:03;;;;;;;7.97;1.77;;;13.20;54.60;;;;;;5005642;28;20569;-63
2021/04/13 07:39:30;;;;;;;15.00;2.42;;;13.10;53.40;;;;;;4995707;28;20041;-63
2021/04/13 07:42:10;;;;;;;12.32;2.45;;;13.00;52.90;;;;;;5003507;28;20025;-63
2021/04/13 07:45:01;;;;;;;8.13;1.60;;;12.80;52.70;;;;;;5004036;28;20033;-63
2021/04/13 07:47:47;;;;;;;9.23;1.70;;;12.70;53.60;;;;;;5003713;28;20041;-63
2021/04/13 07:50:16;;;;;;;12.77;1.92;;;12.80;53.60;;;;;;5003287;28;20047;-63
2021/04/13 07:52:51;;;;;;;12.52;2.17;;;;;;;;;;5003681;28;20123;-63
2021/04/13 07:55:19;;;;;;;10.77;2.47;;;13.70;56.30;;;;;;5002978;28;20357;-62
2021/04/13 07:58:29;;;;;;;14.60;1.92;;;17.10;51.20;;;;;;4993893;28;20037;-63
2021/04/13 08:00:56;;;;;;;9.80;2.22;;;19.00;47.70;;;;;;4973818;28;20115;-63
2021/04/13 08:03:34;;;;;;;9.50;1.92;;;20.60;43.40;;;;;;5008349;28;20064;-63
2021/04/13 08:06:24;;;;;;;9.15;1.95;;;21.30;39.40;;;;;;5004701;28;20341;-63
2021/04/13 08:09:05;;;;;;;11.77;2.30;;;20.90;38.70;;;;;;5001312;28;20136;-63
2021/04/13 08:11:30;;;;;;;14.05;2.25;;;20.50;38.60;;;;;;5007267;28;20049;-63
2021/04/13 08:13:56;;;;;;;8.35;1.63;;;20.70;38.90;;;;;;5013905;28;20103;-63
2021/04/13 08:16:38;;;;;;;8.73;2.13;;;21.30;38.60;;;;;;4997377;28;20034;-63
2021/04/13 08:19:24;;;;;;;7.43;1.70;;;22.20;36.40;;;;;;5006115;28;20055;-63
2021/04/13 08:22:18;;;;;;;14.90;2.08;;;23.00;34.80;;;;;;5008510;28;20038;-63
2021/04/13 08:24:52;;;;;;;10.43;1.95;;;23.80;32.90;;;;;;5005266;28;20047;-64
2021/04/13 08:27:49;;;;;;;7.43;1.63;;;24.60;31.60;;;;;;4997525;28;20049;-63
2021/04/13 08:30:45;;;;;;;6.70;1.83;;;25.40;30.90;;;;;;5001092;28;22707;-63
2021/04/13 08:33:25;;;;;;;13.85;2.10;;;26.20;29.20;;;;;;4991402;28;20254;-63
2021/04/13 08:36:18;;;;;;;8.45;1.95;;;26.70;28.20;;;;;;4998980;28;20034;-63
2021/04/13 08:39:04;;;;;;;7.22;1.70;;;27.00;27.60;;;;;;4998829;28;20064;-63
2021/04/13 08:41:43;;;;;;;6.53;1.27;;;27.70;27.00;;;;;;5009109;28;20041;-64
2021/04/13 08:44:46;;;;;;;6.45;1.33;;;28.20;25.90;;;;;;5005201;28;20456;-63
2021/04/13 08:47:37;;;;;;;10.82;1.48;;;26.80;25.30;;;;;;4991909;28;20445;-63
2021/04/13 08:50:24;;;;;;;4.25;0.98;;;24.50;26.70;;;;;;4999024;28;20041;-63
2021/04/13 08:52:56;;;;;;;5.00;1.10;;;22.50;28.60;;;;;;5007689;28;20546;-63
2021/04/13 08:55:37;;;;;;;8.10;1.75;;;20.70;30.50;;;;;;5011461;28;20029;-63
2021/04/13 08:58:22;;;;;;;9.30;1.50;;;;;;;;;;5018416;28;20331;-63
2021/04/13 09:00:52;;;;;;;10.23;1.83;;;18.00;34.90;;;;;;5011829;28;20637;-62
2021/04/13 09:03:25;;;;;;;9.50;1.60;;;17.10;36.90;;;;;;5013153;28;20048;-63
2021/04/13 09:06:16;;;;;;;8.55;1.63;;;16.30;38.30;;;;;;5014917;28;20162;-62
2021/04/13 09:08:57;;;;;;;9.35;1.58;;;15.50;39.40;;;;;;5012063;28;20040;-63
2021/04/13 09:11:36;;;;;;;7.78;1.85;;;15.00;40.80;;;;;;5009861;28;20123;-62
2021/04/13 09:14:17;;;;;;;3.72;1.58;;;14.80;42.80;;;;;;5014945;28;20060;-62
2021/04/13 09:16:57;;;;;;;7.75;1.95;;;15.10;44.70;;;;;;4996555;28;20128;-63
2021/04/13 09:19:33;;;;;;;10.80;1.50;;;16.00;44.50;;;;;;5009235;28;20041;-63
2021/04/13 09:22:14;;;;;;;8.15;1.88;;;17.00;42.60;;;;;;5008924;28;20133;-63
2021/04/13 09:24:43;;;;;;;5.38;1.40;;;17.50;40.80;;;;;;5010910;28;20275;-63
2021/04/13 09:27:27;;;;;;;13.50;1.65;;;17.60;41.00;;;;;;5004933;28;20037;-63
2021/04/13 09:29:56;;;;;;;14.10;1.95;;;18.30;42.00;;;;;;5007969;28;20045;-63
2021/04/13 09:32:25;;;;;;;6.22;1.42;;;20.00;40.80;;;;;;5013539;28;20077;-63
2021/04/13 09:35:05;;;;;;;10.10;1.50;;;21.00;37.20;;;;;;5014770;28;20519;-63
2021/04/13 09:37:53;;;;;;;9.25;1.90;;;20.80;35.60;;;;;;5004816;28;20353;-63
2021/04/13 09:40:55;;;;;;;7.15;1.70;;;20.20;36.10;;;;;;5013973;28;20376;-63
2021/04/13 09:43:32;;;;;;;10.63;2.00;;;19.40;37.00;;;;;;5021635;28;20036;-63
2021/04/13 09:46:07;;;;;;;10.80;2.17;;;18.70;38.10;;;;;;5005533;28;20034;-63
2021/04/13 09:48:51;;;;;;;8.30;1.83;;;18.10;38.60;;;;;;5006110;28;20164;-63
2021/04/13 09:51:25;;;;;;;5.97;1.50;;;17.40;39.10;;;;;;5011939;28;20033;-63
2021/04/13 09:53:59;;;;;;;12.93;1.50;;;16.80;40.70;;;;;;5009128;28;20589;-63
2021/04/13 09:56:51;;;;;;;9.98;1.85;;;16.40;41.60;;;;;;5008084;28;20041;-63
2021/04/13 09:59:58;;;;;;;9.15;1.70;;;16.10;42.60;;;;;;5030152;28;20036;-63
2021/04/13 10:03:00;;;;;;;10.48;1.98;;;17.20;45.20;;;;;;5013596;28;20300;-64
2021/04/13 10:05:37;;;;;;;5.93;1.58;;;19.60;42.30;;;;;;5008218;28;20470;-63
2021/04/13 10:08:18;;;;;;;12.02;1.73;;;21.50;36.30;;;;;;5000711;28;20126;-63
2021/04/13 10:11:08;;;;;;;10.13;1.33;;;21.30;34.90;;;;;;5014430;28;20180;-63
2021/04/13 10:13:58;;;;;;;7.63;1.67;;;20.40;34.70;;;;;;5012387;28;20137;-64
2021/04/13 10:16:44;;;;;;;7.70;1.73;;;19.30;36.00;;;;;;5007303;28;20033;-63
2021/04/13 10:19:37;;;;;;;10.23;1.45;;;18.40;37.50;;;;;;5007678;28;20830;-63
2021/04/13 10:22:41;;;;;;;5.03;1.25;;;17.80;39.10;;;;;;5012664;28;20144;-63
2021/04/13 10:25:52;;;;;;;6.82;1.20;;;17.40;38.80;;;;;;5004130;28;20219;-63
2021/04/13 10:28:46;;;;;;;7.55;1.13;;;17.00;39.20;;;;;;5016475;28;20363;-62
2021/04/13 10:31:49;;;;;;;8.15;1.27;;;16.40;39.20;;;;;;5017039;28;20030;-62
2021/04/13 10:34:33;;;;;;;7.63;1.33;;;15.70;40.20;;;;;;5005018;28;20045;-62
2021/04/13 10:37:38;;;;;;;11.52;1.90;;;15.10;41.20;;;;;;5001075;28;20052;-62
2021/04/13 10:40:47;;;;;;;8.60;1.50;;;14.70;42.40;;;;;;5004222;28;20506;-62
2021/04/13 10:43:26;;;;;;;4.13;1.52;;;15.50;45.00;;;;;;5018099;28;20115;-63
2021/04/13 10:46:24;;;;;;;6.10;1.75;;;17.70;43.20;;;;;;5008910;28;20136;-63
2021/04/13 10:49:08;;;;;;;6.63;1.65;;;20.20;39.70;;;;;;4974127;28;20049;-64
2021/04/13 10:51:53;;;;;;;3.25;1.13;;;;;;;;;;5011379;28;20048;-64
2021/04/13 10:54:36;;;;;;;5.85;1.42;;;;;;;;;;5005708;28;20566;-63
2021/04/13 10:57:10;;;;;;;4.70;0.70;;;22.00;35.70;;;;;;5010332;28;22572;-63
2021/04/13 10:59:48;;;;;;;2.20;0.70;;;24.70;28.80;;;;;;5005651;28;20487;-63
2021/04/13 11:02:47;;;;;;;3.72;0.82;;;23.00;28.60;;;;;;4989934;28;20045;-62
2021/04/13 11:05:40;;;;;;;3.85;0.80;;;20.90;29.70;;;;;;4989920;28;20700;-62
2021/04/13 11:08:33;;;;;;;5.93;1.05;;;18.90;32.40;;;;;;4999205;28;21335;-61
2021/04/13 11:11:36;;;;;;;3.08;0.98;;;17.30;34.00;;;;;;4989361;28;20140;-61
2021/04/13 11:14:52;;;;;;;1.90;1.00;;;16.20;36.20;;;;;;4974568;28;20471;-61
2021/04/13 11:17:53;;;;;;;4.93;0.95;;;15.40;38.00;;;;;;5007038;28;21911;-61
2021/04/13 11:20:25;;;;;;;3.15;0.90;;;14.70;39.50;;;;;;4985414;28;20533;-61
2021/04/13 11:23:28;;;;;;;5.78;1.23;;;14.30;41.10;;;;;;4990196;28;20039;-62
2021/04/13 11:26:38;;;;;;;3.83;0.90;;;14.20;42.80;;;;;;5004163;28;20447;-62
2021/04/13 11:29:27;;;;;;;2.63;0.60;;;14.20;43.00;;;;;;4999598;28;20092;-62
2021/04/13 11:32:10;;;;;;;8.98;0.90;;;14.20;42.90;;;;;;5000465;28;20061;-62
2021/04/13 11:34:57;;;;;;;6.40;1.20;;;14.20;43.40;;;;;;5021646;28;20499;-62
2021/04/13 11:37:42;;;;;;;7.80;1.38;;;14.10;43.60;;;;;;4999274;28;20195;-62
2021/04/13 11:40:23;;;;;;;9.90;1.50;;;14.10;44.60;;;;;;5001264;28;20611;-62
2021/04/13 11:42:52;;;;;;;4.43;1.42;;;14.00;44.40;;;;;;5011809;28;20039;-62
2021/04/13 11:45:27;;;;;;;6.35;1.60;;;13.80;45.00;;;;;;5002268;28;20455;-62
2021/04/13 11:48:21;;;;;;;4.70;0.73;;;13.70;44.70;;;;;;4999523;28;20037;-63
2021/04/13 11:51:08;;;;;;;6.47;1.10;;;13.40;44.30;;;;;;4996176;28;20498;-62
2021/04/13 11:53:38;;;;;;;7.68;1.30;;;13.10;44.80;;;;;;5008635;28;20346;-63
2021/04/13 11:56:34;;;;;;;13.05;1.83;;;12.80;45.40;;;;;;4991363;28;20041;-62
2021/04/13 11:59:16;;;;;;;6.20;1.75;;;12.70;46.10;;;;;;4992040;28;20041;-62
2021/04/13 12:01:49;;;;;;;8.82;1.40;;;12.80;48.40;;;;;;5000884;28;20293;-63
2021/04/13 12:04:21;;;;;;;9.98;2.00;;;13.20;49.70;;;;;;5000971;28;20091;-63
2021/04/13 12:07:06;;;;;;;7.65;1.25;;;13.70;48.80;;;;;;4999629;28;20137;-63
2021/04/13 12:09:58;;;;;;;3.92;1.00;;;14.10;47.50;;;;;;4991636;28;20134;-63
2021/04/13 12:12:35;;;;;;;6.90;1.60;;;14.10;46.20;;;;;;4997649;28;20037;-62
2021/04/13 12:15:06;;;;;;;9.52;1.48;;;13.90;46.00;;;;;;4995448;28;20029;-63
2021/04/13 12:17:38;;;;;;;8.43;1.40;;;13.70;46.10;;;;;;4991801;28;20236;-63
2021/04/13 12:20:30;;;;;;;8.75;1.08;;;13.60;47.00;;;;;;4999922;28;20468;-63
2021/04/13 12:23:04;;;;;;;5.05;0.90;;;13.40;46.60;;;;;;4997714;28;20037;-64
2021/04/13 12:25:51;;;;;;;3.50;1.30;;;13.50;47.90;;;;;;4994941;28;20041;-64
2021/04/13 12:28:38;;;;;;;4.93;0.85;;;13.70;47.60;;;;;;4989882;28;20033;-63
2021/04/13 12:31:13;;;;;;;3.70;1.10;;;13.90;47.30;;;;;;4993218;28;20100;-63
2021/04/13 12:33:50;;;;;;;1.80;0.77;;;13.90;46.30;;;;;;4999984;28;20649;-64
2021/04/13 12:36:50;;;;;;;3.88;1.17;;;14.00;46.10;;;;;;5003128;28;20091;-64
2021/04/13 12:39:43;;;;;;;5.90;1.33;;;14.20;46.60;;;;;;4980622;28;20578;-64
2021/04/13 12:42:45;;;;;;;2.55;1.05;;;14.60;46.00;;;;;;5002076;28;20048;-64
2021/04/13 12:45:20;;;;;;;7.18;1.25;;;14.80;46.20;;;;;;4983381;28;20053;-64
2021/04/13 12:48:28;;;;;;;6.88;1.27;;;15.20;46.60;;;;;;5013938;28;20046;-64
2021/04/13 12:51:24;;;;;;;3.70;1.30;;;15.50;46.70;;;;;;4971381;28;20373;-64
2021/04/13 12:54:06;;;;;;;7.55;1.30;;;15.90;46.10;;;;;;4932814;28;20522;-65
2021/04/13 12:56:32;;;;;;;8.93;1.50;;;16.20;46.20;;;;;;4990211;28;23895;-64
2021/04/13 12:59:29;;;;;;;4.63;1.23;;;16.50;44.70;;;;;;5005407;23;20049;-65
2021/04/13 13:01:55;;;;;;;5.50;1.20;;;16.60;43.00;;;;;;4972975;28;20557;-65
2021/04/13 13:04:42;;;;;;;5.20;1.00;;;16.60;42.40;;;;;;5018133;28;20042;-65
2021/04/13 13:07:24;;;;;;;6.43;1.40;;;16.60;42.30;;;;;;5000348;28;20698;-65
2021/04/13 13:09:51;;;;;;;4.20;1.48;;;16.60;42.30;;;;;;5002051;28;20049;-65
2021/04/13 13:12:23;;;;;;;5.97;1.38;;;16.60;42.60;;;;;;4992338;28;20046;-65
2021/04/13 13:14:51;;;;;;;4.80;1.20;;;16.70;42.10;;;;;;4988257;28;20041;-65
2021/04/13 13:17:27;;;;;;;4.45;1.30;;;16.80;42.00;;;;;;4987758;28;20034;-65
2021/04/13 13:19:53;;;;;;;6.80;1.20;;;17.00;41.10;;;;;;4981723;28;20148;-65
2021/04/13 13:22:25;;;;;;;7.20;1.17;;;17.00;40.40;;;;;;4984743;28;20092;-65
2021/04/13 13:24:53;;;;;;;6.07;1.20;;;16.90;39.60;;;;;;4981548;28;20038;-66
2021/04/13 13:27:31;;;;;;;5.00;1.25;;;16.60;39.70;;;;;;4985757;28;20093;-64
2021/04/13 13:29:59;;;;;;;4.78;1.48;;;16.10;40.10;;;;;;4996225;28;20847;-64
2021/04/13 13:32:27;;;;;;;6.97;1.63;;;15.60;40.90;;;;;;4987222;28;20393;-64
2021/04/13 13:34:57;;;;;;;5.75;1.30;;;15.00;42.80;;;;;;4979082;28;20042;-64
2021/04/13 13:37:31;;;;;;;6.80;1.38;;;14.60;43.40;;;;;;4974567;28;20337;-64
2021/04/13 13:39:59;;;;;;;6.70;1.67;;;14.20;44.60;;;;;;4986864;28;20025;-65
2021/04/13 13:42:28;;;;;;;9.57;1.52;;;14.00;45.60;;;;;;4987836;28;20064;-65
2021/04/13 13:44:58;;;;;;;6.05;1.58;;;13.90;46.40;;;;;;4982713;28;20038;-64